Stations météo

réclame
Mon MeteoGroup
Humain, Belgique (6472): Température de l'air & dewpoint: 12.11.2018 05:00:00 - 18.11.2018 05:00:00 (CET)Humain, Belgique (6472): Vitesse du vent & gusts: 12.11.2018 05:00:00 - 18.11.2018 05:00:00 (CET)Humain, Belgique (6472): Direction du vent: 12.11.2018 05:00:00 - 18.11.2018 05:00:00 (CET)Humain, Belgique (6472): reduced air pressure: 12.11.2018 05:00:00 - 18.11.2018 05:00:00 (CET)Humain, Belgique (6472): Ensoleillement: 12.11.2018 05:00:00 - 18.11.2018 05:00:00 (CET)Humain, Belgique (6472): Quantités de précipitations: 12.11.2018 05:00:00 - 18.11.2018 05:00:00 (CET)
Date & Time tt [°C] td [°C] ff [km/h] ff [knt] fx [km/h] fx [knt] dd ppp [hPa] sd [min] rr [mm]
18.11.2018 05:00:00 - - - - - - - - - -
18.11.2018 04:00:00 2,4 -3,8 17 9 24 13 NE 1028,2 0 0,0
18.11.2018 03:00:00 2,0 -3,4 17 9 29 16 ENE 1028,4 0 0,0
18.11.2018 02:00:00 2,9 -3,5 17 9 27 14 ENE 1028,6 0 0,0
18.11.2018 01:00:00 2,7 -3,7 14 8 29 15 ENE 1029,0 0 0,0
18.11.2018 00:00:00 3,9 -3,3 19 10 33 18 ENE 1028,6 0 0,0
17.11.2018 23:00:00 4,1 -3,7 20 11 32 18 ENE 1028,6 0 0,0
17.11.2018 22:00:00 4,3 -3,8 19 11 28 15 ENE 1028,4 0 0,0
17.11.2018 21:00:00 4,8 -4,0 20 11 36 20 E 1028,3 0 0,0
17.11.2018 20:00:00 5,7 -3,7 25 13 40 22 E 1028,1 0 0,0
17.11.2018 19:00:00 6,0 -3,2 22 12 37 20 ENE 1028,1 0 0,0
17.11.2018 18:00:00 7,0 -2,9 21 12 35 19 ENE 1028,0 0 0,0
17.11.2018 17:00:00 7,9 -2,7 25 14 40 21 ENE 1027,5 - -
17.11.2018 16:00:00 9,1 -2,6 28 15 42 23 ENE 1027,2 60 0,0
17.11.2018 15:00:00 9,7 -1,5 21 12 47 25 E 1027,1 60 0,0
17.11.2018 14:00:00 9,3 -1,0 20 11 42 23 E 1027,8 60 0,0
17.11.2018 13:00:00 8,9 -1,6 29 16 41 22 E 1028,2 60 0,0
17.11.2018 12:00:00 8,0 -0,7 17 9 36 19 E 1028,3 60 0,0
17.11.2018 11:00:00 6,4 0,0 14 8 42 23 E 1028,7 60 0,0
17.11.2018 10:00:00 4,9 -0,8 22 12 42 23 E 1028,5 60 0,0
17.11.2018 09:00:00 2,8 -1,0 14 8 24 13 ENE 1028,6 42 0,0
17.11.2018 08:00:00 2,1 -1,0 18 10 28 15 ENE 1028,6 0 0,0
17.11.2018 07:00:00 1,9 -1,1 22 12 32 18 E 1028,4 0 0,0
17.11.2018 06:00:00 2,6 -1,0 16 8 31 17 E 1028,4 0 0,0
17.11.2018 05:00:00 2,6 -0,9 11 6 25 14 NE 1028,8 - -
17.11.2018 04:00:00 3,5 -0,9 18 10 - - E 1028,7 - -
17.11.2018 03:00:00 2,7 -0,5 16 9 32 17 ENE 1028,7 0 0,0
17.11.2018 02:00:00 3,8 -0,3 18 10 30 16 E 1028,6 0 0,0
17.11.2018 01:00:00 3,9 0,1 22 12 30 16 E 1028,4 0 0,0
17.11.2018 00:00:00 3,8 -0,1 17 9 28 15 E 1028,9 0 0,0
16.11.2018 23:00:00 3,3 -0,2 9 5 23 13 ENE 1029,0 0 0,0
16.11.2018 22:00:00 4,1 -0,3 18 10 33 18 ESE 1028,6 0 0,0
16.11.2018 21:00:00 5,1 -0,6 22 12 39 21 ESE 1028,2 0 0,0
16.11.2018 20:00:00 6,3 -0,2 31 17 41 22 E 1027,7 0 0,0
16.11.2018 19:00:00 6,4 0,6 18 10 32 17 E 1027,8 0 0,0
16.11.2018 18:00:00 7,2 2,0 9 5 20 11 NE 1027,7 0 0,0
16.11.2018 17:00:00 7,5 2,6 13 7 23 12 E 1027,6 51 0,0
16.11.2018 16:00:00 8,6 3,0 11 6 - - E 1027,5 - -
16.11.2018 15:00:00 8,6 2,9 9 5 14 8 ENE 1027,7 60 0,0
16.11.2018 14:00:00 7,5 3,4 9 5 16 9 E 1028,0 60 0,0
16.11.2018 13:00:00 6,6 3,5 11 6 15 8 E 1028,4 60 0,0
16.11.2018 12:00:00 6,3 3,6 9 5 13 7 E 1028,8 60 0,0
16.11.2018 11:00:00 5,6 4,7 4 2 13 7 SSE 1029,1 60 0,0
16.11.2018 10:00:00 4,2 3,9 8 4 11 6 E 1028,9 60 0,0
16.11.2018 09:00:00 3,2 3,0 7 4 13 7 E 1028,7 3 0,0
16.11.2018 08:00:00 3,5 3,4 8 5 11 6 ESE 1028,1 0 0,0
16.11.2018 07:00:00 3,3 3,2 7 4 9 5 E 1027,9 0 0,0
16.11.2018 06:00:00 2,8 2,6 4 2 14 8 E 1027,5 - -
16.11.2018 05:00:00 2,7 2,5 9 5 11 6 E 1027,5 0 0,0
16.11.2018 04:00:00 2,8 2,5 10 5 11 6 E 1027,1 0 0,0
16.11.2018 03:00:00 3,3 3,0 6 3 9 5 E 1027,3 0 0,0
16.11.2018 02:00:00 2,5 2,2 9 5 11 6 E 1027,5 0 0,0
16.11.2018 01:00:00 1,8 1,3 7 4 12 6 E 1027,3 0 0,0
16.11.2018 00:00:00 2,3 1,8 6 4 8 4 E 1027,3 0 0,0
15.11.2018 23:00:00 1,9 1,4 4 2 8 4 ESE 1027,3 0 0,0
15.11.2018 22:00:00 1,8 1,2 7 4 12 6 E 1027,1 0 0,0
15.11.2018 21:00:00 1,9 1,1 9 5 13 7 ESE 1026,9 0 0,0
15.11.2018 20:00:00 2,2 1,2 11 6 16 9 E 1026,7 0 0,0
15.11.2018 19:00:00 2,8 1,6 14 8 20 11 ESE 1026,5 0 0,0
15.11.2018 18:00:00 3,5 1,5 12 7 22 12 E 1026,2 0 0,0
15.11.2018 17:00:00 6,1 2,4 14 8 18 10 E 1025,8 52 0,0
15.11.2018 16:00:00 9,7 3,9 11 6 16 9 E 1025,2 60 0,0
15.11.2018 15:00:00 11,6 4,5 10 5 13 7 E 1025,0 60 0,0
15.11.2018 14:00:00 11,3 4,5 8 4 13 7 ENE 1025,2 60 0,0
15.11.2018 13:00:00 10,8 4,6 7 4 12 6 E 1025,6 60 0,0
15.11.2018 12:00:00 9,4 4,1 6 3 10 5 E 1025,8 60 0,0
15.11.2018 11:00:00 7,5 3,4 6 3 9 5 E 1026,7 60 0,0
15.11.2018 10:00:00 5,8 2,6 8 4 10 6 E 1027,1 60 0,0
15.11.2018 09:00:00 3,6 1,7 10 6 14 8 E 1027,1 45 0,0
15.11.2018 08:00:00 2,4 0,9 14 8 15 8 E 1026,9 0 0,0
15.11.2018 07:00:00 2,8 1,1 11 6 14 8 E 1026,9 0 0,0
15.11.2018 06:00:00 2,9 1,3 12 7 14 8 E 1026,7 0 0,0
15.11.2018 05:00:00 3,4 1,5 11 6 14 8 E 1026,7 0 0,0
15.11.2018 04:00:00 3,7 2,1 13 7 15 8 E 1026,6 0 0,0
15.11.2018 03:00:00 4,2 2,6 11 6 13 7 E 1026,8 0 0,0
15.11.2018 02:00:00 4,4 2,9 11 6 13 7 E 1026,9 0 0,0
15.11.2018 01:00:00 4,7 3,2 11 6 13 7 E 1027,0 0 0,0
15.11.2018 00:00:00 4,7 2,6 11 6 13 7 E 1027,2 0 0,0
14.11.2018 23:00:00 5,6 2,3 7 4 12 6 E 1027,2 0 0,0
14.11.2018 22:00:00 4,9 2,1 11 6 14 8 E 1027,2 0 0,0
14.11.2018 21:00:00 5,1 2,1 12 7 14 8 E 1027,3 0 0,0
14.11.2018 20:00:00 6,0 3,0 10 5 12 6 E 1027,6 0 0,0
14.11.2018 19:00:00 6,1 3,4 11 6 15 8 ESE 1027,6 0 0,0
14.11.2018 18:00:00 7,9 4,1 7 4 13 7 ESE 1027,4 0 0,0
14.11.2018 17:00:00 9,8 3,8 9 5 13 7 SE 1027,5 59 0,0
14.11.2018 16:00:00 11,2 4,9 8 4 19 10 S 1027,7 60 0,0
14.11.2018 15:00:00 11,7 4,5 11 6 20 11 S 1027,8 60 0,0
14.11.2018 14:00:00 11,4 5,4 10 5 22 12 S 1028,1 60 0,0
14.11.2018 13:00:00 10,1 5,9 14 8 25 13 S 1028,6 60 0,0
14.11.2018 12:00:00 9,7 6,5 11 6 23 13 S 1029,2 60 0,0
14.11.2018 11:00:00 8,0 7,0 8 5 16 8 S 1029,9 60 0,0
14.11.2018 10:00:00 6,1 5,6 7 4 10 5 E 1030,4 60 0,0
14.11.2018 09:00:00 4,5 4,2 9 5 13 7 E 1030,2 45 0,0
14.11.2018 08:00:00 2,8 2,5 11 6 14 8 ESE 1030,1 0 0,0
14.11.2018 07:00:00 3,1 2,6 14 8 16 8 E 1030,3 0 0,0
14.11.2018 06:00:00 4,2 3,6 10 5 12 6 E 1030,6 0 0,0
14.11.2018 05:00:00 5,1 4,5 7 4 14 8 SSE 1030,5 - -
14.11.2018 04:00:00 5,4 4,8 7 4 - - SSE 1031,2 - -
14.11.2018 03:00:00 5,3 4,6 7 4 13 7 S 1031,6 0 0,0
14.11.2018 02:00:00 5,5 4,7 9 5 13 7 S 1031,7 0 0,0
14.11.2018 01:00:00 5,7 5,0 11 6 13 7 SSE 1031,8 0 0,0
14.11.2018 00:00:00 5,6 4,8 6 3 11 6 S 1031,8 0 0,0
13.11.2018 23:00:00 5,5 4,6 7 4 12 6 S 1031,6 0 0,0
13.11.2018 22:00:00 5,9 4,7 9 5 14 8 S 1031,7 0 0,0
13.11.2018 21:00:00 6,3 5,0 6 3 16 9 S 1031,3 0 0,0
13.11.2018 20:00:00 7,0 5,2 7 4 13 7 S 1031,0 0 0,0
13.11.2018 19:00:00 7,6 5,4 11 6 16 9 S 1030,6 0 0,0
13.11.2018 18:00:00 8,6 5,7 14 7 23 12 SW 1030,2 0 0,0
13.11.2018 17:00:00 9,9 5,7 16 9 34 19 SW 1029,5 34 0,0
13.11.2018 16:00:00 10,5 5,9 17 9 35 19 SW 1028,6 24 0,0
13.11.2018 15:00:00 11,0 6,4 22 12 41 22 SW 1027,6 39 0,0
13.11.2018 14:00:00 10,8 6,1 26 14 43 23 SW 1027,4 28 0,0
13.11.2018 13:00:00 10,4 6,2 25 14 38 21 SW 1027,1 1 0,1
13.11.2018 12:00:00 10,9 6,6 28 15 43 23 SW 1027,0 22 0,0
13.11.2018 11:00:00 10,5 7,0 26 14 43 23 SW 1026,2 13 0,0
13.11.2018 10:00:00 9,9 7,2 22 12 34 19 SW 1025,4 5 0,0
13.11.2018 09:00:00 9,3 7,1 24 13 34 18 SW 1025,0 0 0,0
13.11.2018 08:00:00 9,0 7,2 22 12 34 18 SW 1024,0 0 0,0
13.11.2018 07:00:00 9,0 7,5 22 12 33 18 SW 1023,1 0 0,0
13.11.2018 06:00:00 8,9 7,2 18 10 31 17 SSW 1022,6 0 0,1
13.11.2018 05:00:00 8,7 7,1 16 9 27 15 SSW 1022,2 0 0,0
13.11.2018 04:00:00 8,7 7,3 18 10 27 14 SSW 1022,1 0 0,0
13.11.2018 03:00:00 8,7 7,5 10 6 19 10 S 1021,7 0 0,0
13.11.2018 02:00:00 8,3 7,3 14 8 19 10 SSW 1021,7 0 0,0
13.11.2018 01:00:00 8,2 7,3 11 6 16 9 S 1020,9 0 0,0
13.11.2018 00:00:00 8,0 7,0 8 4 14 7 SSW 1021,0 0 0,0
12.11.2018 23:00:00 8,1 7,2 8 4 16 9 S 1020,9 0 0,0
12.11.2018 22:00:00 8,1 7,1 9 5 12 6 S 1020,3 0 0,0
12.11.2018 21:00:00 8,4 7,4 10 5 14 8 SW 1020,1 0 0,0
12.11.2018 20:00:00 8,6 7,5 8 4 14 8 SW 1020,1 0 0,0
12.11.2018 19:00:00 8,9 7,5 11 6 20 11 SW 1019,4 0 0,0
12.11.2018 18:00:00 9,6 8,4 14 8 23 12 W 1018,3 0 0,0
12.11.2018 17:00:00 10,1 8,9 14 8 22 12 SW 1016,8 - -
12.11.2018 16:00:00 9,9 8,9 13 7 18 10 W 1016,3 0 0,0
12.11.2018 15:00:00 9,8 8,8 9 5 17 9 S 1015,3 0 0,0
12.11.2018 14:00:00 9,9 8,9 12 7 27 15 WSW 1015,6 0 0,0
12.11.2018 13:00:00 11,0 9,9 14 8 16 9 W 1014,7 0 0,0
12.11.2018 12:00:00 11,4 10,3 9 5 14 8 SW 1013,7 2 0,0
12.11.2018 11:00:00 11,5 10,3 8 4 18 10 W 1013,3 27 0,0
12.11.2018 10:00:00 11,4 10,2 15 8 24 13 WSW 1012,8 35 0,0
12.11.2018 09:00:00 9,6 9,0 4 2 10 5 S 1012,0 0 0,0
12.11.2018 08:00:00 9,5 8,7 8 4 9 5 ENE 1012,1 0 0,0
12.11.2018 07:00:00 9,7 8,9 7 4 16 9 ENE 1012,4 0 0,0
12.11.2018 06:00:00 9,3 8,7 8 5 17 9 E 1012,6 0 0,5
12.11.2018 05:00:00 9,4 8,6 12 7 16 9 E 1013,0 0 1,6

tt = Température de l'air
td = dewpoint
ff = Vitesse du vent
fx = gusts
dd = Direction du vent
ppp = reduced air pressure
sd = Ensoleillement
rr = Quantités de précipitations

stations d'obs. à proximité